Bahawalpur Weather



Bahawalpur's Current Weather

Temprature 16.82o light rain

light rain

Rain: 31 %

Min Temprature16.82o
Max Temprature16.82o
Humidity30
Wind Speed3.43 m/h
Sun Rise06:58:06
Sun Set17:15:44
Current Time: 12-Dec-2019 01:29:12
Lat/Lon: 29.39, 71.66




Bahawalpur's Geo Location



Bahawalpur's Weather Forecast

Time Overall Temp Min Temp Max Temp Humidity Wind Speed Rain
12-Dec-2019 (Thu)
02:00:00 light rain 16.820 16.820 16.820 30 3.43 m/h 31 %
05:00:00 moderate rain 11.840 11.840 11.840 84 5.01 m/h 494 %
08:00:00 moderate rain 13.580 13.580 13.580 82 5.98 m/h 463 %
11:00:00 light rain 13.240 13.240 13.240 85 4.26 m/h 163 %
14:00:00 light rain 13.560 13.560 13.560 80 4.68 m/h 131 %
17:00:00 light rain 13.060 13.060 13.060 80 4.77 m/h 6 %
20:00:00 broken clouds 12.180 12.180 12.180 82 4.2 m/h 0 %
23:00:00 scattered clouds 11.490 11.490 11.490 90 1.5 m/h 0 %
13-Dec-2019 (Fri)
02:00:00 clear sky 10.780 10.780 10.780 92 2.33 m/h 0 %
05:00:00 clear sky 10.150 10.150 10.150 93 1.45 m/h 0 %
08:00:00 few clouds 11.170 11.170 11.170 86 0.66 m/h 0 %
11:00:00 clear sky 16.110 16.110 16.110 59 0.26 m/h 0 %
14:00:00 clear sky 18.770 18.770 18.770 46 1.17 m/h 0 %
17:00:00 clear sky 17.490 17.490 17.490 51 1.93 m/h 0 %
20:00:00 clear sky 15.480 15.480 15.480 59 3.33 m/h 0 %
23:00:00 clear sky 14.550 14.550 14.550 62 2.17 m/h 0 %
14-Dec-2019 (Sat)
02:00:00 clear sky 14.010 14.010 14.010 64 3.31 m/h 0 %
05:00:00 clear sky 13.270 13.270 13.270 68 3.46 m/h 0 %
08:00:00 clear sky 13.670 13.670 13.670 67 2.75 m/h 0 %
11:00:00 clear sky 19.040 19.040 19.040 46 3.08 m/h 0 %
14:00:00 clear sky 20.800 20.800 20.800 36 2.77 m/h 0 %
17:00:00 scattered clouds 18.830 18.830 18.830 43 2.32 m/h 0 %
20:00:00 overcast clouds 16.970 16.970 16.970 48 2.55 m/h 0 %
23:00:00 overcast clouds 15.970 15.970 15.970 51 2.11 m/h 0 %
15-Dec-2019 (Sun)
02:00:00 broken clouds 14.690 14.690 14.690 58 2.46 m/h 0 %
05:00:00 broken clouds 13.700 13.700 13.700 61 2.4 m/h 0 %
08:00:00 scattered clouds 14.280 14.280 14.280 59 1.29 m/h 0 %
11:00:00 few clouds 18.900 18.900 18.900 42 2.08 m/h 0 %
14:00:00 clear sky 20.670 20.670 20.670 36 1.88 m/h 0 %
17:00:00 clear sky 19.010 19.010 19.010 40 0.4 m/h 0 %
20:00:00 broken clouds 18.500 18.500 18.500 41 1.42 m/h 0 %
23:00:00 broken clouds 15.790 15.790 15.790 48 1.73 m/h 0 %
16-Dec-2019 (Mon)
02:00:00 clear sky 14.550 14.550 14.550 51 0.77 m/h 0 %
05:00:00 clear sky 13.820 13.820 13.820 53 1.07 m/h 0 %
08:00:00 clear sky 14.250 14.250 14.250 52 1.74 m/h 0 %
11:00:00 clear sky 19.200 19.200 19.200 37 1.72 m/h 0 %
14:00:00 clear sky 21.330 21.330 21.330 29 2.6 m/h 0 %
17:00:00 clear sky 19.310 19.310 19.310 28 3.26 m/h 0 %
20:00:00 clear sky 16.330 16.330 16.330 33 3.18 m/h 0 %
23:00:00 clear sky 15.290 15.290 15.290 35 1.38 m/h 0 %


Bahawalpur's Tourist Spots

Historical Places in Bahawalpur

Famous Cities (61)